PST,Max TemperatureF,Mean TemperatureF,Min TemperatureF,Max Dew PointF,MeanDew PointF,Min DewpointF,Max Humidity, Mean Humidity, Min Humidity, Max Sea Level PressureIn, Mean Sea Level PressureIn, Min Sea Level PressureIn, Max VisibilityMiles, Mean VisibilityMiles, Min VisibilityMiles, Max Wind SpeedMPH, Mean Wind SpeedMPH, Max Gust SpeedMPH,PrecipitationIn, CloudCover, Events, WindDirDegrees
2013-12-1,64,52,39,52,47,37,93,77,59,30.34,30.27,30.22,20,14,10,9,3,,0.00,0,,355
2013-12-2,60,50,39,54,50,37,94,85,72,30.18,30.10,30.03,20,11,7,9,5,,0.00,4,,351
2013-12-3,55,52,42,43,38,36,81,60,47,29.96,29.90,29.87,20,13,10,16,11,23,0.00,4,,308
2013-12-4,51,45,39,30,26,21,70,47,30,30.09,30.04,30.02,,,,7,4,,0.00,0,,355
2013-12-5,51,38,24,28,22,18,86,48,28,30.18,30.14,30.11,20,15,10,9,6,,0.00,0,,344
2013-12-6,53,44,35,45,36,30,93,62,47,30.20,30.13,30.01,20,15,10,9,7,,0.00,5,Rain,137
2013-12-7,51,45,37,36,30,27,87,56,41,30.21,30.14,30.04,15,12,10,17,11,29,0.00,3,,308
2013-12-8,46,40,32,30,26,23,75,55,43,30.33,30.28,30.24,20,18,10,16,11,,0.00,2,,31
2013-12-9,51,43,33,30,23,19,81,48,28,30.42,30.38,30.36,20,18,10,15,10,,0.00,0,,48
2013-12-10,53,40,28,34,30,27,93,61,38,30.37,30.29,30.22,20,18,10,6,4,,0.00,1,,-1
2013-12-11,57,44,30,37,32,28,93,61,36,30.25,30.21,30.18,20,11,10,8,3,,0.00,0,,38
2013-12-12,55,42,30,43,35,28,93,69,47,30.27,30.22,30.17,10,9,6,7,5,,0.00,0,,330
2013-12-13,59,49,39,45,40,36,87,75,51,30.34,30.29,30.26,15,11,8,12,6,,0.00,1,,354
2013-12-14,62,47,32,41,37,30,100,69,42,30.39,30.34,30.31,20,14,10,6,3,,0.00,0,,330
2013-12-15,59,46,32,43,38,30,93,69,45,30.36,30.29,30.24,10,7,5,8,4,,0.00,1,,335
2013-12-16,66,50,35,41,38,34,93,61,35,30.23,30.16,30.12,15,12,10,6,2,,0.00,4,,180
2013-12-17,59,47,35,46,41,34,93,72,51,30.18,30.10,30.05,10,5,4,6,4,,0.00,6,,353
2013-12-18,55,48,41,50,46,37,93,83,72,29.98,29.90,29.82,15,8,3,9,6,,0.00,6,,344
2013-12-19,59,50,41,45,38,36,93,65,42,29.90,29.83,29.77,10,10,10,14,8,,0.00,2,,310
2013-12-20,60,50,41,36,25,14,70,41,16,30.02,29.98,29.96,20,20,20,9,6,,0.00,0,,8
2013-12-21,60,46,33,36,32,30,87,44,4,30.06,30.03,29.99,20,14,10,12,4,,0.00,1,,342
2013-12-22,69,51,33,,,,,,,30.26,30.22,30.18,10,10,10,8,4,,0.00,0,Fog,342
2013-12-23,60,48,37,23,23,23,37,37,37,30.39,30.35,30.32,15,8,5,8,3,,0.00,1,,352
2013-12-24,71,53,35,48,42,34,93,63,31,30.32,30.23,30.02,20,15,10,7,4,,0.00,0,,350
2013-12-25,68,50,33,43,40,34,100,67,37,30.30,30.24,30.20,15,11,10,6,2,,0.00,0,,-1
2013-12-26,66,50,35,48,42,34,93,70,43,30.26,30.21,30.16,15,12,10,7,3,,0.00,0,,330
2013-12-27,57,45,33,46,41,32,93,74,63,30.24,30.18,30.13,15,10,5,7,3,,0.00,6,,4
2013-12-28,66,50,35,48,39,34,93,64,34,30.15,30.08,30.03,20,13,10,9,5,,0.00,0,,299
2013-12-29,66,50,35,43,31,21,75,43,19,30.18,30.13,30.09,10,10,10,6,3,,0.00,0,,6
2013-12-30,59,46,33,45,39,30,87,68,45,30.26,30.22,30.19,20,14,10,8,3,,0.00,4,,3
2013-12-31,57,48,39,34,31,23,81,55,30,30.28,30.22,30.17,5,3,0,9,4,,0.00,3,Fog,180